Time;durP1;ratioP1;P1;durP2;ratioP2;P2;SDS_P1;SDS_P2;PMS_P1;PMS_P2;Temp;Humidity;BMP_temperature;BMP_pressure;BME280_temperature;BME280_humidity;BME280_pressure;Samples;Min_cycle;Max_cycle;Signal;HPM_P1;HPM_P2
2022/04/08 00:02:05;;;;;;;13.40;1.88;;;5.30;99.90;;;;;;5014970;28;20056;-84
2022/04/08 00:04:32;;;;;;;10.48;1.83;;;5.40;99.90;;;;;;5014680;28;20061;-84
2022/04/08 00:07:01;;;;;;;10.27;2.10;;;5.40;99.90;;;;;;5031107;28;20445;-85
2022/04/08 00:09:26;;;;;;;10.48;1.55;;;5.40;99.90;;;;;;5030919;28;20103;-85
2022/04/08 00:11:52;;;;;;;10.52;1.98;;;5.40;99.90;;;;;;5013602;28;20525;-85
2022/04/08 00:14:18;;;;;;;14.68;2.15;;;5.40;99.90;;;;;;5014800;28;20068;-85
2022/04/08 00:16:45;;;;;;;8.38;2.75;;;5.40;99.90;;;;;;5014800;28;20470;-84
2022/04/08 00:19:11;;;;;;;19.17;2.95;;;5.40;99.90;;;;;;5035106;28;20097;-84
2022/04/08 00:21:37;;;;;;;18.85;2.47;;;5.40;99.90;;;;;;5002144;28;20053;-84
2022/04/08 00:24:03;;;;;;;12.73;2.40;;;5.40;99.90;;;;;;5029550;28;20053;-84
2022/04/08 00:26:30;;;;;;;11.15;1.90;;;5.40;99.90;;;;;;5055869;28;20057;-84
2022/04/08 00:28:56;;;;;;;8.63;1.75;;;5.40;99.90;;;;;;5050604;28;20840;-86
2022/04/08 00:31:22;;;;;;;12.93;1.80;;;5.40;99.90;;;;;;5023765;28;20049;-85
2022/04/08 00:33:48;;;;;;;11.23;1.60;;;5.40;99.90;;;;;;5018873;28;20053;-84
2022/04/08 00:36:16;;;;;;;7.75;1.95;;;5.30;99.90;;;;;;5018765;28;20054;-85
2022/04/08 00:38:42;;;;;;;8.23;1.60;;;6.10;99.90;;;;;;5035643;28;20049;-86
2022/04/08 00:41:08;;;;;;;8.85;1.63;;;5.20;99.90;;;;;;5034727;28;20045;-84
2022/04/08 00:43:36;;;;;;;12.90;2.45;;;5.10;99.90;;;;;;5017777;28;20285;-85
2022/04/08 00:46:02;;;;;;;5.90;1.45;;;5.10;99.90;;;;;;5033636;28;20049;-84
2022/04/08 00:48:28;;;;;;;5.97;1.45;;;5.10;99.90;;;;;;5018055;28;20461;-84
2022/04/08 00:50:54;;;;;;;4.97;1.55;;;5.10;99.90;;;;;;5037619;28;20419;-83
2022/04/08 00:53:20;;;;;;;3.58;1.08;;;5.10;99.90;;;;;;5042075;28;20049;-85
2022/04/08 00:55:46;;;;;;;5.65;1.10;;;4.90;99.90;;;;;;5022447;28;20396;-84
2022/04/08 00:58:11;;;;;;;2.92;0.85;;;4.80;99.90;;;;;;5058741;28;20033;-83
2022/04/08 01:00:38;;;;;;;3.35;0.90;;;4.70;99.90;;;;;;5038328;28;20017;-84
2022/04/08 01:03:04;;;;;;;6.00;1.13;;;4.60;99.90;;;;;;5023203;28;20140;-86
2022/04/08 01:05:30;;;;;;;1.75;0.70;;;4.60;99.90;;;;;;5028688;28;20053;-86
2022/04/08 01:07:56;;;;;;;2.60;1.00;;;4.60;99.90;;;;;;5022272;28;20470;-86
2022/04/08 01:10:22;;;;;;;4.78;0.90;;;4.50;99.90;;;;;;5020614;28;20107;-86
2022/04/08 01:12:49;;;;;;;5.10;1.17;;;4.50;99.90;;;;;;5033632;28;20511;-85
2022/04/08 01:15:19;;;;;;;5.05;1.10;;;4.40;99.90;;;;;;5017648;28;20050;-85
2022/04/08 01:17:45;;;;;;;2.13;1.20;;;4.40;99.90;;;;;;5017104;28;20092;-85
2022/04/08 01:20:11;;;;;;;4.00;1.20;;;5.10;99.90;;;;;;5000797;28;20046;-85
2022/04/08 01:22:36;;;;;;;6.50;1.67;;;4.20;99.90;;;;;;4998056;28;20046;-86
2022/04/08 01:25:06;;;;;;;6.57;1.30;;;4.30;99.90;;;;;;5014157;28;20126;-86
2022/04/08 01:27:32;;;;;;;4.63;1.42;;;4.20;99.90;;;;;;5014521;28;20129;-86
2022/04/08 01:29:58;;;;;;;5.63;1.38;;;4.20;99.90;;;;;;4996539;28;20128;-86
2022/04/08 01:32:24;;;;;;;7.15;1.40;;;4.20;99.90;;;;;;4982045;28;20061;-85
2022/04/08 01:34:50;;;;;;;4.88;1.58;;;4.20;99.90;;;;;;4997464;28;20104;-85
2022/04/08 01:37:16;;;;;;;3.75;1.00;;;4.10;99.90;;;;;;4998211;28;20060;-86
2022/04/08 01:39:42;;;;;;;3.20;1.20;;;5.20;99.90;;;;;;5014131;28;20132;-86
2022/04/08 01:42:08;;;;;;;4.35;1.27;;;4.40;99.90;;;;;;5013919;28;20049;-85
2022/04/08 01:44:35;;;;;;;6.55;1.45;;;3.70;99.90;;;;;;4981373;28;20045;-85
2022/04/08 01:47:01;;;;;;;8.32;1.45;;;3.60;99.90;;;;;;4997256;28;20052;-85
2022/04/08 01:49:26;;;;;;;5.97;1.20;;;3.60;99.90;;;;;;4997639;28;20042;-86
2022/04/08 01:51:52;;;;;;;6.18;1.63;;;3.60;99.90;;;;;;4997170;28;20046;-85
2022/04/08 01:54:18;;;;;;;8.77;1.90;;;4.50;99.90;;;;;;5013773;28;20057;-85
2022/04/08 01:56:43;;;;;;;6.50;1.48;;;3.60;99.90;;;;;;5014343;28;20046;-85
2022/04/08 01:59:09;;;;;;;6.90;1.60;;;4.50;99.90;;;;;;5027585;28;20045;-85
2022/04/08 02:01:35;;;;;;;12.05;1.77;;;3.60;99.90;;;;;;5024408;28;20045;-84
2022/04/08 02:04:00;;;;;;;12.05;2.42;;;3.60;99.90;;;;;;5014008;28;20479;-85
2022/04/08 02:06:26;;;;;;;9.45;1.38;;;3.60;99.90;;;;;;5014254;28;20049;-84
2022/04/08 02:08:53;;;;;;;8.77;1.70;;;4.50;99.90;;;;;;5023554;28;20038;-82
2022/04/08 02:11:20;;;;;;;7.57;1.80;;;5.20;99.90;;;;;;5036651;28;20064;-85
2022/04/08 02:13:46;;;;;;;6.68;1.58;;;3.70;99.90;;;;;;4998828;28;20081;-85
2022/04/08 02:16:12;;;;;;;9.15;1.90;;;4.30;99.90;;;;;;5014533;28;20057;-85
2022/04/08 02:18:38;;;;;;;7.85;1.73;;;3.70;99.90;;;;;;4997675;28;20132;-86
2022/04/08 02:21:04;;;;;;;10.05;2.78;;;3.70;99.90;;;;;;4996937;28;20142;-85
2022/04/08 02:23:39;;;;;;;7.68;2.15;;;3.60;99.90;;;;;;4998374;28;20049;-85
2022/04/08 02:26:09;;;;;;;9.45;1.75;;;3.60;99.90;;;;;;4996544;28;20062;-85
2022/04/08 02:28:35;;;;;;;10.30;1.58;;;3.60;99.90;;;;;;4996511;28;20089;-83
2022/04/08 02:31:00;;;;;;;14.13;1.85;;;3.50;99.90;;;;;;5012357;28;20080;-85
2022/04/08 02:33:26;;;;;;;9.73;1.90;;;3.50;99.90;;;;;;5013169;28;20104;-85
2022/04/08 02:35:52;;;;;;;11.02;1.88;;;3.50;99.90;;;;;;4996783;28;20394;-85
2022/04/08 02:38:18;;;;;;;11.25;2.25;;;3.60;99.90;;;;;;5012962;28;20058;-86
2022/04/08 02:40:43;;;;;;;5.85;1.60;;;3.40;99.90;;;;;;5029826;28;20042;-85
2022/04/08 02:43:09;;;;;;;9.82;1.77;;;4.10;99.90;;;;;;5029780;28;20050;-85
2022/04/08 02:45:36;;;;;;;7.45;2.08;;;3.40;99.90;;;;;;5003087;28;20366;-84
2022/04/08 02:48:02;;;;;;;7.45;2.03;;;3.50;99.90;;;;;;5014302;28;20483;-85
2022/04/08 02:50:27;;;;;;;8.20;1.98;;;3.60;99.90;;;;;;4996547;28;20130;-85
2022/04/08 02:52:53;;;;;;;10.13;2.25;;;3.60;99.90;;;;;;5012615;28;20046;-87
2022/04/08 02:55:19;;;;;;;6.75;1.85;;;3.50;99.90;;;;;;5011990;28;20050;-84
2022/04/08 02:57:46;;;;;;;6.90;2.00;;;3.40;99.90;;;;;;5012282;28;20103;-84
2022/04/08 03:00:15;;;;;;;6.75;1.77;;;3.40;99.90;;;;;;5011581;28;20704;-84
2022/04/08 03:02:41;;;;;;;6.90;1.60;;;3.30;99.90;;;;;;4995677;28;20062;-85
2022/04/08 03:05:07;;;;;;;6.15;1.73;;;4.20;99.90;;;;;;4995728;28;20054;-84
2022/04/08 03:07:33;;;;;;;11.85;1.83;;;3.20;99.90;;;;;;5011800;28;20490;-85
2022/04/08 03:09:59;;;;;;;7.50;1.80;;;3.10;99.90;;;;;;5009988;28;20100;-81
2022/04/08 03:12:25;;;;;;;6.50;2.03;;;3.20;99.90;;;;;;5011560;28;20132;-85
2022/04/08 03:14:50;;;;;;;8.68;2.00;;;3.10;99.90;;;;;;5028375;28;20074;-84
2022/04/08 03:17:16;;;;;;;8.05;1.83;;;3.10;99.90;;;;;;4996037;28;20504;-85
2022/04/08 03:19:42;;;;;;;7.22;2.00;;;4.00;99.90;;;;;;5012007;28;20050;-86
2022/04/08 03:22:07;;;;;;;6.32;1.80;;;3.00;99.90;;;;;;4995349;28;20479;-85
2022/04/08 03:24:33;;;;;;;7.82;1.83;;;3.40;99.90;;;;;;5012801;28;20080;-84
2022/04/08 03:26:58;;;;;;;7.13;1.75;;;3.00;99.90;;;;;;5010917;28;20150;-85
2022/04/08 03:29:24;;;;;;;9.38;1.90;;;2.90;99.90;;;;;;5010686;28;20540;-85
2022/04/08 03:31:50;;;;;;;12.07;1.88;;;2.90;99.90;;;;;;4995135;28;20045;-86
2022/04/08 03:34:15;;;;;;;10.27;1.90;;;3.00;99.90;;;;;;4994962;28;20383;-85
2022/04/08 03:36:41;;;;;;;14.93;2.20;;;2.90;99.90;;;;;;5011588;28;20057;-85
2022/04/08 03:39:08;;;;;;;12.38;2.25;;;2.80;99.90;;;;;;4978991;28;20054;-85
2022/04/08 03:41:34;;;;;;;8.68;1.90;;;2.80;99.90;;;;;;5012583;28;20050;-86
2022/04/08 03:44:00;;;;;;;7.50;1.85;;;3.50;99.90;;;;;;4990449;28;20068;-83
2022/04/08 03:46:26;;;;;;;13.18;2.13;;;3.60;99.90;;;;;;5032357;28;20092;-83
2022/04/08 03:48:51;;;;;;;11.05;2.08;;;2.80;99.90;;;;;;5014076;28;20520;-84
2022/04/08 03:51:17;;;;;;;11.50;2.20;;;2.90;99.90;;;;;;5012538;28;20068;-85
2022/04/08 03:53:43;;;;;;;13.45;2.40;;;2.90;99.90;;;;;;5016093;28;20133;-86
2022/04/08 03:56:09;;;;;;;14.35;2.50;;;2.80;99.90;;;;;;4980253;28;20053;-85
2022/04/08 03:58:34;;;;;;;13.30;2.40;;;2.80;99.90;;;;;;5011384;28;20057;-86
2022/04/08 04:01:01;;;;;;;12.60;2.30;;;2.90;99.90;;;;;;5012690;28;20045;-85
2022/04/08 04:03:27;;;;;;;14.15;2.55;;;2.90;99.90;;;;;;4995473;28;20054;-85
2022/04/08 04:05:52;;;;;;;12.73;2.20;;;3.00;99.90;;;;;;5011350;28;20056;-85
2022/04/08 04:08:18;;;;;;;14.93;3.15;;;3.00;99.90;;;;;;5012617;28;20108;-85
2022/04/08 04:10:47;;;;;;;13.13;2.10;;;3.10;99.90;;;;;;5012998;28;20088;-85
2022/04/08 04:13:13;;;;;;;12.73;2.78;;;3.90;99.90;;;;;;4979829;28;20133;-85
2022/04/08 04:15:38;;;;;;;4.80;2.13;;;4.30;99.90;;;;;;5007817;28;20084;-84
2022/04/08 04:18:04;;;;;;;4.68;1.73;;;3.40;99.90;;;;;;5027345;28;20508;-85
2022/04/08 04:20:30;;;;;;;6.40;1.95;;;3.90;99.90;;;;;;5011110;28;20046;-85
2022/04/08 04:22:56;;;;;;;4.75;1.63;;;3.80;99.90;;;;;;4979041;28;20232;-85
2022/04/08 04:25:21;;;;;;;6.50;1.48;;;3.10;99.90;;;;;;4994073;28;20149;-84
2022/04/08 04:27:47;;;;;;;8.18;1.95;;;3.00;99.90;;;;;;5011098;28;20049;-86
2022/04/08 04:30:13;;;;;;;4.95;1.80;;;3.10;99.90;;;;;;5012193;28;20125;-85
2022/04/08 04:32:39;;;;;;;7.03;2.10;;;3.00;99.90;;;;;;5011221;28;20067;-86
2022/04/08 04:35:08;;;;;;;4.65;1.70;;;3.90;99.90;;;;;;4994433;28;20113;-85
2022/04/08 04:37:35;;;;;;;4.88;1.80;;;3.00;99.90;;;;;;4977374;28;20441;-85
2022/04/08 04:40:01;;;;;;;4.07;2.00;;;3.00;99.90;;;;;;4993996;28;20468;-86
2022/04/08 04:42:28;;;;;;;8.25;2.92;;;1.90;99.90;;;;;;5010037;28;20096;-85
2022/04/08 04:44:54;;;;;;;5.05;1.80;;;2.90;99.90;;;;;;5009760;28;20061;-86
2022/04/08 04:47:20;;;;;;;3.63;1.80;;;2.80;99.90;;;;;;4993231;28;20064;-86
2022/04/08 04:49:46;;;;;;;6.65;4.45;;;3.00;99.90;;;;;;4994216;28;20136;-85
2022/04/08 04:52:11;;;;;;;5.55;2.40;;;3.70;99.90;;;;;;5010985;28;20089;-84
2022/04/08 04:54:37;;;;;;;4.45;1.90;;;3.50;99.90;;;;;;4993691;28;20069;-85
2022/04/08 04:57:04;;;;;;;4.55;2.00;;;2.70;99.90;;;;;;4993835;28;20490;-85
2022/04/08 04:59:29;;;;;;;5.03;2.15;;;2.70;99.90;;;;;;5018613;28;20042;-85
2022/04/08 05:01:55;;;;;;;3.63;1.90;;;2.70;99.90;;;;;;5029610;28;20054;-83
2022/04/08 05:04:21;;;;;;;4.50;2.63;;;2.60;99.90;;;;;;5002689;28;20066;-84
2022/04/08 05:06:47;;;;;;;5.70;1.88;;;2.60;99.90;;;;;;5032192;28;20129;-85
2022/04/08 05:09:12;;;;;;;4.00;2.00;;;2.60;99.90;;;;;;5024872;28;20101;-84
2022/04/08 05:11:38;;;;;;;4.75;1.95;;;3.60;99.90;;;;;;5013021;28;20046;-85
2022/04/08 05:14:04;;;;;;;6.07;2.30;;;2.70;99.90;;;;;;5015106;28;20066;-86
2022/04/08 05:16:30;;;;;;;5.28;2.05;;;2.60;99.90;;;;;;4997518;28;20050;-85
2022/04/08 05:18:55;;;;;;;5.30;1.90;;;2.70;99.90;;;;;;5013942;28;20092;-85
2022/04/08 05:21:21;;;;;;;9.73;2.22;;;2.80;99.90;;;;;;4997373;28;20119;-84
2022/04/08 05:23:47;;;;;;;4.85;2.00;;;2.90;99.90;;;;;;4997539;28;20084;-84
2022/04/08 05:26:14;;;;;;;4.68;1.92;;;4.20;99.90;;;;;;4997560;28;20064;-84
2022/04/08 05:28:39;;;;;;;4.72;2.03;;;3.70;99.90;;;;;;4996462;28;20050;-84
2022/04/08 05:31:05;;;;;;;6.22;1.98;;;4.40;99.90;;;;;;4997281;28;20190;-84
2022/04/08 05:33:31;;;;;;;5.82;2.20;;;4.70;99.90;;;;;;5012457;28;20076;-84
2022/04/08 05:35:56;;;;;;;5.97;2.03;;;3.60;99.90;;;;;;4997567;28;20058;-85
2022/04/08 05:38:22;;;;;;;4.38;1.70;;;4.90;99.90;;;;;;5012922;28;20423;-84
2022/04/08 05:40:50;;;;;;;2.75;1.40;;;4.20;99.90;;;;;;5015336;28;20057;-85
2022/04/08 05:43:16;;;;;;;5.85;1.73;;;4.70;99.90;;;;;;5028045;28;20042;-83
2022/04/08 05:45:41;;;;;;;3.95;1.45;;;5.00;99.90;;;;;;5026242;28;20049;-84
2022/04/08 05:48:08;;;;;;;6.43;1.40;;;5.40;99.90;;;;;;4997126;28;20375;-85
2022/04/08 05:50:33;;;;;;;5.00;1.50;;;5.70;99.90;;;;;;4995938;28;20722;-84
2022/04/08 05:52:59;;;;;;;4.47;1.67;;;5.90;99.90;;;;;;5013182;28;20054;-84
2022/04/08 05:55:25;;;;;;;6.10;1.75;;;5.90;99.90;;;;;;4996034;28;20474;-84
2022/04/08 05:57:53;;;;;;;7.03;1.70;;;6.10;99.90;;;;;;4980221;28;20533;-84
2022/04/08 06:00:20;;;;;;;5.10;1.80;;;5.70;99.90;;;;;;5012992;28;20465;-85
2022/04/08 06:02:47;;;;;;;5.13;1.80;;;5.20;99.90;;;;;;5012472;28;20057;-84
2022/04/08 06:05:18;;;;;;;5.18;1.90;;;4.90;99.90;;;;;;5012636;28;20064;-84
2022/04/08 06:07:50;;;;;;;9.05;1.80;;;4.90;99.90;;;;;;4996114;28;20054;-84
2022/04/08 06:10:18;;;;;;;4.53;1.70;;;5.70;99.90;;;;;;4996794;28;20041;-84
2022/04/08 06:12:50;;;;;;;6.15;1.95;;;6.20;99.90;;;;;;5011897;28;20589;-84
2022/04/08 06:15:16;;;;;;;6.43;1.63;;;6.20;99.90;;;;;;4995396;28;20049;-83
2022/04/08 06:17:42;;;;;;;4.63;1.60;;;6.50;99.90;;;;;;5011463;28;20046;-84
2022/04/08 06:20:11;;;;;;;5.13;1.40;;;6.80;99.90;;;;;;5012085;28;20370;-84
2022/04/08 06:22:41;;;;;;;5.05;1.33;;;7.10;99.90;;;;;;5013084;28;20085;-85
2022/04/08 06:25:08;;;;;;;4.30;1.52;;;6.90;99.90;;;;;;5007899;28;20050;-83
2022/04/08 06:27:33;;;;;;;5.00;1.50;;;6.10;99.90;;;;;;5015966;28;20033;-84
2022/04/08 06:29:59;;;;;;;5.20;1.40;;;6.00;99.90;;;;;;5018678;28;20042;-84
2022/04/08 06:32:25;;;;;;;4.93;1.30;;;6.40;99.90;;;;;;4995732;28;20057;-85
2022/04/08 06:34:50;;;;;;;4.18;1.30;;;6.80;99.90;;;;;;5011727;28;20050;-84
2022/04/08 06:37:16;;;;;;;5.47;1.40;;;7.30;99.90;;;;;;5011291;28;20451;-84
2022/04/08 06:39:41;;;;;;;3.95;1.27;;;7.60;99.90;;;;;;5011008;28;20497;-83
2022/04/08 06:42:07;;;;;;;4.28;1.40;;;7.20;99.90;;;;;;4995340;28;20379;-83
2022/04/08 06:44:33;;;;;;;4.45;1.30;;;7.70;99.90;;;;;;5010854;28;20137;-83
2022/04/08 06:46:59;;;;;;;3.88;1.67;;;7.80;99.90;;;;;;5011889;28;20054;-83
2022/04/08 06:49:25;;;;;;;1.88;1.10;;;7.70;99.90;;;;;;5011632;28;20050;-83
2022/04/08 06:51:53;;;;;;;2.92;1.20;;;8.50;99.90;;;;;;5010967;28;20053;-83
2022/04/08 06:54:18;;;;;;;2.60;1.60;;;8.20;99.90;;;;;;5011415;28;20129;-83
2022/04/08 06:56:44;;;;;;;2.78;1.75;;;8.20;99.90;;;;;;5012414;28;20124;-83
2022/04/08 06:59:11;;;;;;;3.17;1.25;;;8.00;99.90;;;;;;5013368;28;20042;-82
2022/04/08 07:01:36;;;;;;;2.80;1.08;;;8.80;99.90;;;;;;5008443;28;20105;-82
2022/04/08 07:04:02;;;;;;;4.82;1.30;;;8.10;99.90;;;;;;5031468;28;20057;-84
2022/04/08 07:06:29;;;;;;;4.50;1.33;;;8.30;99.90;;;;;;5008359;28;20084;-83
2022/04/08 07:08:54;;;;;;;4.47;1.40;;;8.20;99.90;;;;;;5023344;28;20085;-82
2022/04/08 07:11:20;;;;;;;4.47;1.20;;;8.70;99.90;;;;;;5020872;28;20046;-83
2022/04/08 07:13:46;;;;;;;3.17;1.25;;;8.60;99.90;;;;;;5013361;28;20525;-83
2022/04/08 07:16:12;;;;;;;2.30;1.20;;;9.00;99.90;;;;;;5015599;28;20054;-82
2022/04/08 07:18:37;;;;;;;2.60;1.25;;;8.40;99.90;;;;;;5011320;28;20048;-83
2022/04/08 07:21:03;;;;;;;2.42;1.10;;;8.90;99.90;;;;;;5008130;28;20049;-84
2022/04/08 07:23:29;;;;;;;3.40;1.20;;;9.30;99.90;;;;;;5008249;28;20061;-84
2022/04/08 07:25:54;;;;;;;4.88;1.40;;;9.30;99.90;;;;;;5022027;28;20555;-84
2022/04/08 07:28:20;;;;;;;3.47;1.27;;;9.80;99.90;;;;;;5013225;28;20049;-83
2022/04/08 07:30:48;;;;;;;4.53;1.15;;;10.00;99.90;;;;;;5013384;28;20052;-84
2022/04/08 07:33:14;;;;;;;4.40;1.30;;;9.80;99.90;;;;;;5035531;28;20045;-84
2022/04/08 07:35:41;;;;;;;3.33;1.20;;;9.70;99.90;;;;;;5044920;28;20079;-82
2022/04/08 07:38:07;;;;;;;2.80;1.25;;;9.70;99.90;;;;;;5023365;28;20057;-84
2022/04/08 07:40:32;;;;;;;5.55;1.23;;;9.70;99.90;;;;;;5027943;28;20050;-84
2022/04/08 07:42:58;;;;;;;3.15;1.15;;;9.20;99.90;;;;;;4998710;28;20060;-84
2022/04/08 07:45:27;;;;;;;4.30;1.23;;;8.70;99.90;;;;;;5030157;28;20057;-84
2022/04/08 07:47:55;;;;;;;3.92;1.27;;;9.00;99.90;;;;;;5011376;28;20057;-84
2022/04/08 07:50:21;;;;;;;2.95;1.10;;;8.70;99.90;;;;;;5026773;28;20048;-84
2022/04/08 07:52:46;;;;;;;3.50;1.10;;;9.40;99.90;;;;;;5026327;28;20054;-84
2022/04/08 07:55:12;;;;;;;5.47;1.38;;;9.90;99.90;;;;;;5026501;28;20094;-83
2022/04/08 07:57:50;;;;;;;5.93;1.00;;;10.00;99.90;;;;;;5014055;28;20143;-83
2022/04/08 08:00:19;;;;;;;3.78;1.20;;;10.20;99.90;;;;;;5027206;28;20125;-83
2022/04/08 08:02:45;;;;;;;3.42;1.05;;;10.40;99.90;;;;;;5003523;28;20056;-83
2022/04/08 08:05:10;;;;;;;5.30;1.10;;;10.90;99.90;;;;;;5013751;28;20045;-82
2022/04/08 08:08:03;;;;;;;4.25;1.45;;;9.80;99.90;;;;;;5036297;28;20045;-83
2022/04/08 08:10:30;;;;;;;4.20;1.60;;;8.80;99.90;;;;;;5011484;28;20107;-84
2022/04/08 08:12:58;;;;;;;4.38;1.65;;;7.80;99.90;;;;;;4993048;28;20053;-82
2022/04/08 08:15:24;;;;;;;4.00;1.70;;;7.60;99.90;;;;;;5024227;28;20045;-83
2022/04/08 08:17:50;;;;;;;9.18;2.13;;;7.20;99.90;;;;;;5011779;28;20045;-82
2022/04/08 08:20:17;;;;;;;6.00;1.83;;;7.50;99.90;;;;;;5013422;28;20087;-82
2022/04/08 08:22:43;;;;;;;7.88;2.30;;;7.80;99.90;;;;;;5028972;28;20045;-82
2022/04/08 08:25:11;;;;;;;5.47;1.60;;;8.30;99.90;;;;;;5027412;28;20505;-81
2022/04/08 08:27:48;;;;;;;8.68;2.80;;;8.90;99.90;;;;;;5008455;28;20096;-82
2022/04/08 08:30:15;;;;;;;5.75;1.80;;;9.40;99.90;;;;;;5015982;28;20121;-82
2022/04/08 08:32:43;;;;;;;6.15;1.80;;;9.40;99.90;;;;;;5012699;28;20045;-82
2022/04/08 08:35:10;;;;;;;4.32;1.50;;;10.00;99.90;;;;;;5026590;28;20049;-82
2022/04/08 08:37:36;;;;;;;5.43;1.98;;;10.80;99.90;;;;;;5009529;28;20128;-82
2022/04/08 08:40:05;;;;;;;7.35;1.90;;;10.20;99.90;;;;;;5015111;28;20121;-82
2022/04/08 08:42:31;;;;;;;7.30;2.22;;;10.80;99.90;;;;;;5016589;28;20093;-83
2022/04/08 08:44:57;;;;;;;7.22;2.05;;;10.70;99.90;;;;;;5032903;28;20498;-83
2022/04/08 08:47:23;;;;;;;7.75;2.05;;;10.70;99.90;;;;;;5033660;28;20508;-83
2022/04/08 08:49:50;;;;;;;4.95;1.90;;;11.10;99.90;;;;;;5032690;28;20071;-83
2022/04/08 08:52:17;;;;;;;6.47;1.83;;;12.30;99.90;;;;;;5034027;28;20056;-83
2022/04/08 08:54:43;;;;;;;5.22;1.55;;;13.00;99.90;;;;;;5000739;28;20132;-83
2022/04/08 08:57:10;;;;;;;4.88;1.73;;;13.20;99.90;;;;;;5032847;28;20109;-83
2022/04/08 08:59:38;;;;;;;6.47;2.15;;;12.90;99.90;;;;;;5016541;28;20512;-82
2022/04/08 09:02:04;;;;;;;3.97;1.42;;;13.00;99.90;;;;;;5032919;28;20132;-80
2022/04/08 09:04:30;;;;;;;5.15;1.67;;;12.80;99.90;;;;;;5015804;28;20124;-82
2022/04/08 09:06:57;;;;;;;6.88;1.60;;;12.30;99.90;;;;;;5014571;28;20477;-82
2022/04/08 09:09:32;;;;;;;6.13;1.85;;;12.70;99.90;;;;;;5011689;28;20550;-83
2022/04/08 09:12:14;;;;;;;7.50;2.25;;;12.20;99.90;;;;;;5014845;28;20520;-82
2022/04/08 09:14:44;;;;;;;6.10;1.83;;;10.80;99.90;;;;;;5015224;28;20056;-84
2022/04/08 09:17:10;;;;;;;4.90;1.75;;;12.00;99.90;;;;;;5014548;28;20061;-84
2022/04/08 09:19:35;;;;;;;3.30;1.40;;;11.70;99.90;;;;;;5015386;28;20076;-82
2022/04/08 09:22:01;;;;;;;4.68;1.55;;;11.30;99.90;;;;;;5031389;28;20075;-82
2022/04/08 09:24:27;;;;;;;6.22;1.77;;;11.80;99.90;;;;;;5031339;28;20041;-82
2022/04/08 09:26:53;;;;;;;3.65;1.38;;;11.90;99.90;;;;;;5015319;28;20060;-82
2022/04/08 09:29:20;;;;;;;4.07;1.92;;;12.20;99.90;;;;;;4995710;28;20053;-82
2022/04/08 09:31:49;;;;;;;3.83;1.50;;;11.80;99.90;;;;;;4980182;28;20058;-82
2022/04/08 09:34:16;;;;;;;4.35;1.40;;;11.00;99.90;;;;;;5011415;28;20057;-82
2022/04/08 09:36:42;;;;;;;8.88;1.88;;;10.30;99.90;;;;;;4996201;28;20537;-82
2022/04/08 09:39:10;;;;;;;5.10;1.60;;;10.10;99.90;;;;;;4995874;28;20046;-82
2022/04/08 09:41:39;;;;;;;4.97;1.80;;;9.60;99.90;;;;;;5013830;28;20128;-82
2022/04/08 09:44:09;;;;;;;6.30;1.58;;;9.70;99.90;;;;;;4995834;28;20394;-83
2022/04/08 09:46:36;;;;;;;6.43;2.17;;;10.60;99.90;;;;;;4996051;28;20088;-82
2022/04/08 09:49:04;;;;;;;4.85;1.73;;;11.20;99.90;;;;;;4995173;28;20058;-82
2022/04/08 09:51:29;;;;;;;6.43;1.73;;;12.50;99.90;;;;;;4996305;28;20053;-83
2022/04/08 09:53:59;;;;;;;5.85;1.75;;;12.70;99.90;;;;;;4999933;28;20052;-83
2022/04/08 09:56:28;;;;;;;7.30;1.60;;;12.50;99.90;;;;;;5036655;28;20053;-82
2022/04/08 09:59:25;;;;;;;6.63;1.85;;;13.00;99.90;;;;;;5020090;28;20397;-82
2022/04/08 10:01:51;;;;;;;;;;;12.90;99.90;;;;;;5019264;28;20126;-82
2022/04/08 10:04:17;;;;;;;6.18;1.85;;;12.30;99.90;;;;;;4991419;28;19988;-82
2022/04/08 10:06:43;;;;;;;7.03;1.88;;;12.10;99.90;;;;;;5005019;28;20050;-83
2022/04/08 10:09:10;;;;;;;9.15;2.10;;;11.00;99.90;;;;;;5013471;28;20054;-83
2022/04/08 10:11:54;;;;;;;7.70;1.92;;;11.60;99.90;;;;;;4995936;28;20053;-83
2022/04/08 10:14:51;;;;;;;6.78;2.05;;;12.40;99.90;;;;;;4995877;28;20053;-83
2022/04/08 10:17:17;;;;;;;7.03;2.22;;;12.40;99.90;;;;;;5012090;28;20129;-83
2022/04/08 10:19:42;;;;;;;7.90;2.00;;;11.90;99.90;;;;;;4996270;28;20132;-83
2022/04/08 10:22:16;;;;;;;10.15;2.40;;;11.60;99.90;;;;;;4979395;28;20050;-82
2022/04/08 10:24:54;;;;;;;6.32;1.88;;;11.20;99.90;;;;;;4995573;28;20089;-84
2022/04/08 10:27:29;;;;;;;8.90;2.05;;;11.80;99.90;;;;;;5000306;28;20058;-82
2022/04/08 10:29:55;;;;;;;5.43;1.48;;;11.80;99.90;;;;;;5012396;28;20493;-82
2022/04/08 10:32:21;;;;;;;7.47;1.50;;;12.10;99.90;;;;;;5019484;28;20088;-83
2022/04/08 10:34:47;;;;;;;4.95;1.38;;;11.40;99.90;;;;;;5021669;28;20049;-81
2022/04/08 10:37:26;;;;;;;4.47;1.20;;;11.50;99.90;;;;;;5035409;28;20053;-82
2022/04/08 10:40:02;;;;;;;4.28;1.60;;;11.80;99.90;;;;;;5030506;28;20046;-82
2022/04/08 10:42:29;;;;;;;7.40;1.40;;;11.80;99.90;;;;;;5049009;28;20045;-81
2022/04/08 10:44:55;;;;;;;7.00;1.90;;;12.60;99.90;;;;;;5049438;28;20116;-83
2022/04/08 10:47:21;;;;;;;6.95;1.48;;;12.30;99.90;;;;;;5017705;28;20121;-81
2022/04/08 10:50:03;;;;;;;3.90;1.58;;;12.20;99.90;;;;;;5015649;28;20095;-81
2022/04/08 10:52:29;;;;;;;7.18;1.83;;;12.30;99.90;;;;;;5014404;28;20120;-83
2022/04/08 10:55:25;;;;;;;8.30;1.90;;;12.30;99.90;;;;;;5029748;28;20049;-82
2022/04/08 10:57:54;;;;;;;5.63;1.52;;;11.60;99.90;;;;;;4971822;28;20057;-82
2022/04/08 11:00:20;;;;;;;7.05;1.50;;;11.60;99.90;;;;;;5013458;28;20037;-81
2022/04/08 11:02:48;;;;;;;7.22;1.60;;;11.00;99.90;;;;;;5011817;28;20042;-81
2022/04/08 11:05:15;;;;;;;7.78;1.90;;;10.70;99.90;;;;;;5008618;28;20194;-81
2022/04/08 11:07:46;;;;;;;5.60;1.70;;;10.50;99.90;;;;;;5011204;28;20128;-82
2022/04/08 11:10:15;;;;;;;6.78;2.00;;;10.80;99.90;;;;;;5034937;28;20052;-82
2022/04/08 11:12:44;;;;;;;8.57;2.25;;;11.30;99.90;;;;;;5016039;28;20179;-81
2022/04/08 11:15:22;;;;;;;5.80;1.80;;;11.50;99.90;;;;;;5013706;28;20065;-81
2022/04/08 11:17:50;;;;;;;6.15;1.83;;;11.60;99.90;;;;;;5030302;28;20034;-81
2022/04/08 11:20:17;;;;;;;5.75;1.85;;;11.80;99.90;;;;;;5010038;28;20054;-81
2022/04/08 11:22:50;;;;;;;5.72;1.67;;;11.90;99.90;;;;;;5011689;28;20037;-81
2022/04/08 11:25:23;;;;;;;5.80;1.80;;;11.70;99.90;;;;;;5010367;28;20181;-81
2022/04/08 11:28:12;;;;;;;5.03;1.73;;;12.00;99.90;;;;;;5008398;28;20049;-82
2022/04/08 11:30:38;;;;;;;6.65;1.60;;;11.60;99.90;;;;;;4995479;28;20612;-82
2022/04/08 11:33:15;;;;;;;5.32;1.70;;;11.90;99.90;;;;;;4991358;28;20175;-82
2022/04/08 11:35:41;;;;;;;4.78;1.38;;;11.80;99.90;;;;;;5013497;28;20049;-82
2022/04/08 11:38:16;;;;;;;4.75;1.40;;;11.90;99.90;;;;;;5023409;28;20156;-82
2022/04/08 11:40:42;;;;;;;3.63;1.65;;;11.60;99.90;;;;;;5012250;28;20744;-82
2022/04/08 11:43:08;;;;;;;7.28;2.08;;;11.60;99.90;;;;;;5013721;28;20041;-83
2022/04/08 11:45:34;;;;;;;5.03;1.25;;;11.40;99.90;;;;;;5012730;28;20049;-82
2022/04/08 11:48:01;;;;;;;8.77;1.75;;;10.90;99.90;;;;;;5015742;28;20053;-82
2022/04/08 11:50:27;;;;;;;5.03;1.52;;;10.50;99.90;;;;;;5020016;28;20053;-81
2022/04/08 11:52:57;;;;;;;5.53;2.15;;;9.70;99.90;;;;;;5015402;28;20048;-81
2022/04/08 11:55:24;;;;;;;4.60;1.50;;;9.60;99.90;;;;;;5019064;28;20049;-81
2022/04/08 11:57:50;;;;;;;5.75;2.45;;;9.40;99.90;;;;;;5036674;28;20034;-81
2022/04/08 12:00:16;;;;;;;4.65;1.20;;;9.40;99.90;;;;;;5020218;28;20041;-81
2022/04/08 12:02:41;;;;;;;3.35;1.17;;;9.50;99.90;;;;;;5037229;28;20057;-82
2022/04/08 12:05:08;;;;;;;4.25;1.40;;;9.80;99.90;;;;;;5017364;28;20072;-82
2022/04/08 12:07:34;;;;;;;4.65;1.42;;;10.30;99.90;;;;;;5032949;28;20105;-82
2022/04/08 12:10:00;;;;;;;2.70;1.20;;;10.40;99.90;;;;;;5033347;28;20152;-82
2022/04/08 12:12:27;;;;;;;7.60;1.90;;;10.70;99.90;;;;;;5015846;28;20054;-82
2022/04/08 12:14:53;;;;;;;4.68;1.45;;;10.30;99.90;;;;;;5028199;28;20081;-81
2022/04/08 12:17:20;;;;;;;8.65;1.85;;;10.80;99.90;;;;;;5042330;28;20080;-82
2022/04/08 12:19:47;;;;;;;5.53;1.42;;;10.50;99.90;;;;;;5042131;28;20045;-83
2022/04/08 12:22:15;;;;;;;4.07;1.08;;;10.90;99.90;;;;;;5015492;28;20129;-81
2022/04/08 12:24:42;;;;;;;4.38;1.20;;;10.70;99.90;;;;;;5018925;28;20050;-82
2022/04/08 12:27:17;;;;;;;3.47;1.58;;;10.70;99.90;;;;;;5037426;28;20063;-82
2022/04/08 12:29:45;;;;;;;3.97;1.45;;;10.60;99.90;;;;;;5035601;28;20838;-82
2022/04/08 12:32:15;;;;;;;6.10;1.23;;;10.50;99.90;;;;;;5015000;28;20061;-82
2022/04/08 12:34:43;;;;;;;5.63;2.45;;;10.80;99.90;;;;;;4991449;28;20116;-81
2022/04/08 12:37:09;;;;;;;6.10;1.65;;;10.70;99.90;;;;;;5015360;28;20053;-82
2022/04/08 12:39:35;;;;;;;5.20;1.73;;;10.70;99.90;;;;;;5013275;28;20401;-82
2022/04/08 12:42:01;;;;;;;3.40;1.40;;;10.40;99.90;;;;;;4996943;28;20045;-82
2022/04/08 12:44:27;;;;;;;3.92;1.40;;;10.40;99.90;;;;;;5012950;28;20150;-81
2022/04/08 12:46:54;;;;;;;4.57;1.33;;;10.20;99.90;;;;;;5029370;28;20059;-82
2022/04/08 12:49:20;;;;;;;4.50;1.38;;;10.10;99.90;;;;;;5013359;28;20057;-82
2022/04/08 12:51:46;;;;;;;5.75;1.60;;;10.50;99.90;;;;;;5012435;28;20045;-82
2022/04/08 12:54:12;;;;;;;2.35;1.15;;;11.00;99.90;;;;;;5029267;28;20646;-82